Time,TemperatureF,DewpointF,PressureIn,WindDirection,WindDirectionDegrees,WindSpeedMPH,WindSpeedGustMPH,Humidity,HourlyPrecipIn,Conditions,Clouds,dailyrainin,SoftwareType,DateUTC
2013-06-14 00:12:00,66.3,55.0,29.65,NW,316,3.0,16.0,67,0.00,,,0.01,weatherlink.com 1.10,2013-06-14 04:12:00,
2013-06-14 00:27:00,66.2,55.0,29.66,WNW,293,15.0,18.0,67,0.00,,,0.01,weatherlink.com 1.10,2013-06-14 04:27:00,
2013-06-14 00:42:00,66.0,55.0,29.66,WNW,291,5.0,18.0,67,0.00,,,0.01,weatherlink.com 1.10,2013-06-14 04:42:00,
2013-06-14 00:57:00,65.8,55.0,29.67,West,276,5.0,14.0,68,0.00,,,0.01,weatherlink.com 1.10,2013-06-14 04:57:00,
2013-06-14 01:12:00,65.4,55.0,29.67,West,269,6.0,17.0,68,0.00,,,0.01,weatherlink.com 1.10,2013-06-14 05:12:00,
2013-06-14 01:27:00,65.0,55.0,29.68,West,266,6.0,20.0,69,0.00,,,0.01,weatherlink.com 1.10,2013-06-14 05:27:00,
2013-06-14 01:42:00,64.3,54.0,29.68,WNW,300,15.0,15.0,70,0.00,,,0.01,weatherlink.com 1.10,2013-06-14 05:42:00,
2013-06-14 01:57:00,64.0,54.0,29.68,NNW,345,9.0,16.0,70,0.00,,,0.01,weatherlink.com 1.10,2013-06-14 05:57:00,
2013-06-14 02:12:00,63.7,54.0,29.68,NNW,339,20.0,20.0,71,0.00,,,0.01,weatherlink.com 1.10,2013-06-14 06:12:00,
2013-06-14 02:27:00,63.6,54.0,29.69,WNW,293,4.0,16.0,71,0.00,,,0.01,weatherlink.com 1.10,2013-06-14 06:27:00,
2013-06-14 02:42:00,63.5,54.0,29.70,WNW,300,9.0,17.0,70,0.00,,,0.01,weatherlink.com 1.10,2013-06-14 06:42:00,
2013-06-14 02:57:00,63.4,53.0,29.70,West,274,7.0,16.0,70,0.00,,,0.01,weatherlink.com 1.10,2013-06-14 06:57:00,
2013-06-14 03:12:00,63.3,54.0,29.71,West,278,11.0,16.0,71,0.00,,,0.01,weatherlink.com 1.10,2013-06-14 07:12:00,
2013-06-14 03:27:00,63.1,54.0,29.72,East,99,4.0,11.0,71,0.00,,,0.01,weatherlink.com 1.10,2013-06-14 07:27:00,
2013-06-14 03:42:00,62.8,54.0,29.72,WNW,291,3.0,13.0,73,0.00,,,0.01,weatherlink.com 1.10,2013-06-14 07:42:00,
2013-06-14 03:58:00,60.9,55.0,29.73,NW,305,6.0,16.0,80,0.00,,,0.01,weatherlink.com 1.10,2013-06-14 07:58:00,
2013-06-14 04:13:00,59.8,55.0,29.74,NW,316,2.0,14.0,84,0.00,,,0.01,weatherlink.com 1.10,2013-06-14 08:13:00,
2013-06-14 04:28:00,59.6,55.0,29.75,North,356,9.0,9.0,85,0.00,,,0.01,weatherlink.com 1.10,2013-06-14 08:28:00,
2013-06-14 04:43:00,59.7,55.0,29.75,NNE,23,2.0,10.0,85,0.00,,,0.01,weatherlink.com 1.10,2013-06-14 08:43:00,
2013-06-14 04:58:00,59.8,55.0,29.75,NE,49,3.0,8.0,84,0.00,,,0.01,weatherlink.com 1.10,2013-06-14 08:58:00,
2013-06-14 05:13:00,59.8,55.0,29.76,NE,34,2.0,5.0,84,0.00,,,0.01,weatherlink.com 1.10,2013-06-14 09:13:00,
2013-06-14 05:28:00,59.7,55.0,29.77,WNW,300,0.0,3.0,84,0.00,,,0.01,weatherlink.com 1.10,2013-06-14 09:28:00,
2013-06-14 05:43:00,59.7,55.0,29.77,NW,319,0.0,2.0,85,0.00,,,0.01,weatherlink.com 1.10,2013-06-14 09:43:00,
2013-06-14 05:58:00,59.7,55.0,29.78,NNW,340,1.0,2.0,85,0.00,,,0.01,weatherlink.com 1.10,2013-06-14 09:58:00,
2013-06-14 06:13:00,59.7,55.0,29.78,NNE,16,2.0,2.0,85,0.00,,,0.01,weatherlink.com 1.10,2013-06-14 10:13:00,
2013-06-14 06:28:00,60.6,55.0,29.78,WNW,293,1.0,3.0,81,0.00,,,0.01,weatherlink.com 1.10,2013-06-14 10:28:00,
2013-06-14 06:43:00,61.4,55.0,29.79,NW,307,4.0,9.0,79,0.00,,,0.01,weatherlink.com 1.10,2013-06-14 10:43:00,
2013-06-14 06:58:00,61.7,54.0,29.80,WNW,291,6.0,9.0,77,0.00,,,0.01,weatherlink.com 1.10,2013-06-14 10:58:00,
2013-06-14 07:13:00,61.8,54.0,29.81,WNW,292,5.0,12.0,75,0.00,,,0.01,weatherlink.com 1.10,2013-06-14 11:13:00,
2013-06-14 07:28:00,62.2,54.0,29.82,West,270,4.0,12.0,74,0.00,,,0.01,weatherlink.com 1.10,2013-06-14 11:28:00,
2013-06-14 07:43:00,63.2,54.0,29.82,SE,124,3.0,13.0,72,0.00,,,0.01,weatherlink.com 1.10,2013-06-14 11:43:00,
2013-06-14 07:58:00,63.0,53.0,29.83,WNW,283,4.0,13.0,71,0.00,,,0.01,weatherlink.com 1.10,2013-06-14 11:58:00,
2013-06-14 08:13:00,64.4,54.0,29.84,NW,315,3.0,13.0,70,0.00,,,0.01,weatherlink.com 1.10,2013-06-14 12:13:00,
2013-06-14 08:28:00,64.5,54.0,29.84,West,270,8.0,19.0,68,0.00,,,0.01,weatherlink.com 1.10,2013-06-14 12:28:00,
2013-06-14 08:43:00,64.1,54.0,29.86,NW,307,4.0,13.0,69,0.00,,,0.01,weatherlink.com 1.10,2013-06-14 12:43:00,
2013-06-14 08:58:00,64.2,54.0,29.87,NNW,335,2.0,13.0,69,0.00,,,0.01,weatherlink.com 1.10,2013-06-14 12:58:00,
2013-06-14 09:13:00,64.9,52.0,29.88,North,360,19.0,20.0,63,0.00,,,0.01,weatherlink.com 1.10,2013-06-14 13:13:00,
2013-06-14 09:28:00,65.0,52.0,29.88,West,280,4.0,17.0,63,0.00,,,0.01,weatherlink.com 1.10,2013-06-14 13:28:00,
2013-06-14 09:43:00,65.4,52.0,29.88,NNE,27,9.0,18.0,62,0.00,,,0.01,weatherlink.com 1.10,2013-06-14 13:43:00,
2013-06-14 09:58:00,66.0,52.0,29.89,East,95,3.0,19.0,60,0.00,,,0.01,weatherlink.com 1.10,2013-06-14 13:58:00,
2013-06-14 10:13:00,67.0,51.0,29.89,North,5,6.0,19.0,57,0.00,,,0.01,weatherlink.com 1.10,2013-06-14 14:13:00,
2013-06-14 10:28:00,67.2,50.0,29.90,SW,215,5.0,13.0,55,0.00,,,0.01,weatherlink.com 1.10,2013-06-14 14:28:00,
2013-06-14 10:43:00,68.1,51.0,29.90,West,269,3.0,11.0,54,0.00,,,0.01,weatherlink.com 1.10,2013-06-14 14:43:00,
2013-06-14 10:58:00,67.9,51.0,29.90,NW,304,2.0,12.0,56,0.00,,,0.01,weatherlink.com 1.10,2013-06-14 14:58:00,
2013-06-14 11:13:00,68.4,51.0,29.90,NNW,344,6.0,9.0,55,0.00,,,0.01,weatherlink.com 1.10,2013-06-14 15:13:00,
2013-06-14 11:28:00,69.4,52.0,29.90,NE,36,9.0,11.0,54,0.00,,,0.01,weatherlink.com 1.10,2013-06-14 15:28:00,
2013-06-14 11:43:00,69.5,52.0,29.91,WNW,300,1.0,13.0,55,0.00,,,0.01,weatherlink.com 1.10,2013-06-14 15:43:00,
2013-06-14 11:59:00,70.9,54.0,29.91,NNW,330,4.0,-999.0,55,-99.99,,,0.01,weatherlink.com 1.10,2013-06-14 15:59:00,
2013-06-14 12:14:00,70.9,54.0,29.91,NNE,16,9.0,10.0,55,0.00,,,0.00,weatherlink.com 1.10,2013-06-14 16:14:00,
2013-06-14 12:29:00,71.6,53.0,29.91,West,276,6.0,17.0,52,0.00,,,0.00,weatherlink.com 1.10,2013-06-14 16:29:00,
2013-06-14 12:44:00,71.8,52.0,29.91,WNW,302,1.0,13.0,50,0.00,,,0.00,weatherlink.com 1.10,2013-06-14 16:44:00,
2013-06-14 12:59:00,72.5,54.0,29.91,NW,304,9.0,15.0,52,0.00,,,0.00,weatherlink.com 1.10,2013-06-14 16:59:00,
2013-06-14 13:14:00,73.2,53.0,29.91,West,267,6.0,17.0,50,0.00,,,0.00,weatherlink.com 1.10,2013-06-14 17:14:00,
2013-06-14 13:29:00,72.8,53.0,29.91,ENE,63,6.0,15.0,50,0.00,,,0.00,weatherlink.com 1.10,2013-06-14 17:29:00,
2013-06-14 13:44:00,73.5,52.0,29.91,WSW,250,5.0,12.0,47,0.00,,,0.00,weatherlink.com 1.10,2013-06-14 17:44:00,
2013-06-14 13:59:00,75.1,52.0,29.91,NNE,32,7.0,14.0,44,0.00,,,0.00,weatherlink.com 1.10,2013-06-14 17:59:00,
2013-06-14 14:14:00,74.2,51.0,29.90,WNW,302,6.0,14.0,45,0.00,,,0.00,weatherlink.com 1.10,2013-06-14 18:14:00,
2013-06-14 14:29:00,74.5,52.0,29.90,West,266,14.0,16.0,45,0.00,,,0.00,weatherlink.com 1.10,2013-06-14 18:29:00,
2013-06-14 14:44:00,75.1,51.0,29.90,SW,215,20.0,22.0,43,0.00,,,0.00,weatherlink.com 1.10,2013-06-14 18:44:00,
2013-06-14 14:59:00,75.6,51.0,29.90,NW,314,2.0,16.0,42,0.00,,,0.00,weatherlink.com 1.10,2013-06-14 18:59:00,
2013-06-14 15:14:00,75.9,50.0,29.90,WNW,290,5.0,15.0,40,0.00,,,0.00,weatherlink.com 1.10,2013-06-14 19:14:00,
2013-06-14 15:29:00,76.7,51.0,29.89,NNW,327,10.0,15.0,40,0.00,,,0.00,weatherlink.com 1.10,2013-06-14 19:29:00,
2013-06-14 15:44:00,76.1,50.0,29.89,NNW,343,11.0,18.0,40,0.00,,,0.00,weatherlink.com 1.10,2013-06-14 19:44:00,
2013-06-14 15:59:00,76.9,51.0,29.89,West,264,8.0,10.0,40,0.00,,,0.00,weatherlink.com 1.10,2013-06-14 19:59:00,
2013-06-14 16:14:00,76.4,50.0,29.89,NW,311,8.0,13.0,40,0.00,,,0.00,weatherlink.com 1.10,2013-06-14 20:14:00,
2013-06-14 16:29:00,76.8,51.0,29.89,WSW,257,7.0,12.0,41,0.00,,,0.00,weatherlink.com 1.10,2013-06-14 20:29:00,
2013-06-14 16:44:00,76.8,51.0,29.89,WNW,301,13.0,18.0,41,0.00,,,0.00,weatherlink.com 1.10,2013-06-14 20:44:00,
2013-06-14 16:59:00,76.7,51.0,29.90,West,273,9.0,18.0,41,0.00,,,0.00,weatherlink.com 1.10,2013-06-14 20:59:00,
2013-06-14 17:14:00,76.8,52.0,29.90,NW,316,7.0,18.0,42,0.00,,,0.00,weatherlink.com 1.10,2013-06-14 21:14:00,
2013-06-14 17:29:00,76.9,51.0,29.90,NW,308,5.0,18.0,41,0.00,,,0.00,weatherlink.com 1.10,2013-06-14 21:29:00,
2013-06-14 17:44:00,76.1,53.0,29.91,West,274,4.0,15.0,44,0.00,,,0.00,weatherlink.com 1.10,2013-06-14 21:44:00,
2013-06-14 17:59:00,76.3,52.0,29.91,NNW,333,7.0,17.0,43,0.00,,,0.00,weatherlink.com 1.10,2013-06-14 21:59:00,
2013-06-14 18:14:00,76.5,53.0,29.91,SW,219,9.0,16.0,44,0.00,,,0.00,weatherlink.com 1.10,2013-06-14 22:14:00,
2013-06-14 18:29:00,76.4,53.0,29.91,WNW,297,5.0,14.0,45,0.00,,,0.00,weatherlink.com 1.10,2013-06-14 22:29:00,
2013-06-14 18:44:00,76.4,53.0,29.91,WNW,296,7.0,16.0,45,0.00,,,0.00,weatherlink.com 1.10,2013-06-14 22:44:00,
2013-06-14 18:59:00,76.3,53.0,29.91,SW,235,7.0,13.0,44,0.00,,,0.00,weatherlink.com 1.10,2013-06-14 22:59:00,
2013-06-14 19:14:00,76.0,52.0,29.92,West,273,7.0,14.0,44,0.00,,,0.00,weatherlink.com 1.10,2013-06-14 23:14:00,
2013-06-14 19:29:00,75.3,52.0,29.92,WNW,283,8.0,17.0,45,0.00,,,0.00,weatherlink.com 1.10,2013-06-14 23:29:00,
2013-06-14 19:44:00,75.1,53.0,29.93,WSW,243,6.0,13.0,47,0.00,,,0.00,weatherlink.com 1.10,2013-06-14 23:44:00,
2013-06-14 19:59:00,74.8,54.0,29.93,West,264,6.0,14.0,48,0.00,,,0.00,weatherlink.com 1.10,2013-06-14 23:59:00,
2013-06-14 20:14:00,74.0,55.0,29.93,West,264,4.0,11.0,51,0.00,,,0.00,weatherlink.com 1.10,2013-06-15 00:14:00,
2013-06-14 20:29:00,73.4,55.0,29.94,WNW,299,5.0,10.0,53,0.00,,,0.00,weatherlink.com 1.10,2013-06-15 00:29:00,
2013-06-14 20:44:00,72.7,55.0,29.95,WNW,288,4.0,9.0,54,0.00,,,0.00,weatherlink.com 1.10,2013-06-15 00:44:00,
2013-06-14 20:59:00,71.9,55.0,29.95,WNW,290,2.0,4.0,56,0.00,,,0.00,weatherlink.com 1.10,2013-06-15 00:59:00,
2013-06-14 21:15:00,71.1,55.0,29.95,West,262,3.0,5.0,58,0.00,,,0.00,weatherlink.com 1.10,2013-06-15 01:15:00,
2013-06-14 21:30:00,70.4,55.0,29.95,WNW,297,3.0,3.0,59,0.00,,,0.00,weatherlink.com 1.10,2013-06-15 01:30:00,
2013-06-14 21:45:00,69.8,55.0,29.96,West,271,1.0,3.0,60,0.00,,,0.00,weatherlink.com 1.10,2013-06-15 01:45:00,
2013-06-14 22:00:00,69.4,55.0,29.97,WNW,283,1.0,2.0,61,0.00,,,0.00,weatherlink.com 1.10,2013-06-15 02:00:00,
2013-06-14 22:15:00,68.2,56.0,29.97,WSW,252,0.0,2.0,65,0.00,,,0.00,weatherlink.com 1.10,2013-06-15 02:15:00,
2013-06-14 22:30:00,66.4,56.0,29.98,East,91,0.0,1.0,69,0.00,,,0.00,weatherlink.com 1.10,2013-06-15 02:30:00,
2013-06-14 22:45:00,65.3,56.0,29.98,ESE,123,0.0,1.0,72,0.00,,,0.00,weatherlink.com 1.10,2013-06-15 02:45:00,
2013-06-14 23:00:00,64.1,56.0,29.99,ESE,122,0.0,0.0,76,0.00,,,0.00,weatherlink.com 1.10,2013-06-15 03:00:00,
2013-06-14 23:15:00,63.2,56.0,29.99,SSE,148,1.0,1.0,78,0.00,,,0.00,weatherlink.com 1.10,2013-06-15 03:15:00,
2013-06-14 23:30:00,62.9,56.0,29.99,SSE,148,0.0,1.0,79,0.00,,,0.00,weatherlink.com 1.10,2013-06-15 03:30:00,
2013-06-14 23:45:00,62.2,56.0,30.00,SSE,160,0.0,1.0,80,0.00,,,0.00,weatherlink.com 1.10,2013-06-15 03:45:00,